createdAt,value
2023-04-20T00:00:23.052Z,41
2023-04-20T00:01:29.919Z,42
2023-04-20T00:02:36.944Z,40
2023-04-20T00:03:43.692Z,44
2023-04-20T00:04:50.523Z,38
2023-04-20T00:05:58.218Z,42
2023-04-20T00:07:05.048Z,43
2023-04-20T00:08:11.950Z,43
2023-04-20T00:09:19.015Z,40
2023-04-20T00:10:25.713Z,42
2023-04-20T00:11:32.497Z,40
2023-04-20T00:12:39.372Z,44
2023-04-20T00:13:46.234Z,44
2023-04-20T00:14:53.076Z,46
2023-04-20T00:16:00.028Z,40
2023-04-20T00:17:06.977Z,42
2023-04-20T00:18:13.864Z,43
2023-04-20T00:19:21.669Z,41
2023-04-20T00:20:28.549Z,38
2023-04-20T00:21:36.283Z,41
2023-04-20T00:22:43.220Z,45
2023-04-20T00:23:50.090Z,42
2023-04-20T00:24:56.992Z,45
2023-04-20T00:26:03.844Z,44
2023-04-20T00:27:10.694Z,43
2023-04-20T00:28:17.561Z,44
2023-04-20T00:29:24.569Z,47
2023-04-20T00:30:31.499Z,49
2023-04-20T00:31:38.420Z,51
2023-04-20T00:32:45.417Z,53
2023-04-20T00:33:52.344Z,46
2023-04-20T00:34:59.146Z,45
2023-04-20T00:36:06.042Z,45
2023-04-20T00:37:12.965Z,42
2023-04-20T00:38:19.898Z,43
2023-04-20T00:39:26.828Z,43
2023-04-20T00:40:33.705Z,44
2023-04-20T00:41:40.640Z,45
2023-04-20T00:42:47.479Z,42
2023-04-20T00:43:54.435Z,43
2023-04-20T00:45:01.343Z,42
2023-04-20T00:46:08.581Z,45
2023-04-20T00:47:15.441Z,42
2023-04-20T00:48:22.404Z,39
2023-04-20T00:49:29.227Z,41
2023-04-20T00:50:36.154Z,41
2023-04-20T00:51:43.845Z,38
2023-04-20T00:52:50.665Z,43
2023-04-20T00:53:57.572Z,43
2023-04-20T00:55:04.576Z,39
2023-04-20T00:56:11.519Z,43
2023-04-20T00:57:18.425Z,41
2023-04-20T00:58:25.243Z,42
2023-04-20T00:59:32.085Z,45
2023-04-20T01:00:38.932Z,43
2023-04-20T01:01:45.877Z,43
2023-04-20T01:02:52.874Z,48
2023-04-20T01:03:59.679Z,42
2023-04-20T01:05:06.524Z,47
2023-04-20T01:06:13.365Z,44
2023-04-20T01:07:20.200Z,42
2023-04-20T01:08:27.078Z,46
2023-04-20T01:09:34.710Z,43
2023-04-20T01:10:41.562Z,45
2023-04-20T01:11:48.356Z,43
2023-04-20T01:12:55.204Z,46
2023-04-20T01:14:02.122Z,44
2023-04-20T01:15:09.358Z,46
2023-04-20T01:16:16.260Z,44
2023-04-20T01:17:23.040Z,46
2023-04-20T01:18:29.821Z,46
2023-04-20T01:19:44.955Z,46
2023-04-20T01:20:51.842Z,46
2023-04-20T01:21:59.573Z,45
2023-04-20T01:23:06.460Z,46
2023-04-20T01:24:13.361Z,46
2023-04-20T01:25:20.241Z,42
2023-04-20T01:26:27.211Z,43
2023-04-20T01:27:33.947Z,41
2023-04-20T01:28:40.803Z,43
2023-04-20T01:29:47.651Z,45
2023-04-20T01:30:54.568Z,47
2023-04-20T01:32:01.384Z,42
2023-04-20T01:33:08.337Z,43
2023-04-20T01:34:15.291Z,48
2023-04-20T01:35:22.150Z,45
2023-04-20T01:36:29.017Z,42
2023-04-20T01:37:35.873Z,45
2023-04-20T01:38:42.702Z,44
2023-04-20T01:39:49.571Z,45
2023-04-20T01:40:56.377Z,44
2023-04-20T01:42:03.297Z,46
2023-04-20T01:43:10.187Z,49
2023-04-20T01:44:17.088Z,48
2023-04-20T01:45:24.008Z,44
2023-04-20T01:46:30.907Z,48
2023-04-20T01:47:40.480Z,48
2023-04-20T01:48:47.292Z,48
2023-04-20T01:49:54.090Z,46
2023-04-20T01:51:00.983Z,51
2023-04-20T01:52:07.897Z,51
2023-04-20T01:53:14.775Z,47
2023-04-20T01:54:21.598Z,51
2023-04-20T01:55:28.431Z,50
2023-04-20T01:56:35.361Z,54
2023-04-20T01:57:42.199Z,52
2023-04-20T01:58:49.063Z,52
2023-04-20T01:59:55.880Z,53
2023-04-20T02:01:03.078Z,48
2023-04-20T02:02:10.060Z,50
2023-04-20T02:03:16.972Z,52
2023-04-20T02:04:23.688Z,60
2023-04-20T02:05:30.539Z,53
2023-04-20T02:06:37.436Z,52
2023-04-20T02:07:44.273Z,54
2023-04-20T02:08:51.110Z,57
2023-04-20T02:09:57.995Z,52
2023-04-20T02:11:04.871Z,55
2023-04-20T02:12:11.915Z,53
2023-04-20T02:13:18.776Z,50
2023-04-20T02:14:25.648Z,55
2023-04-20T02:15:33.047Z,57
2023-04-20T02:16:39.929Z,50
2023-04-20T02:17:46.862Z,53
2023-04-20T02:18:53.674Z,47
2023-04-20T02:20:00.568Z,52
2023-04-20T02:21:07.571Z,55
2023-04-20T02:22:14.411Z,52
2023-04-20T02:23:21.242Z,53
2023-04-20T02:24:28.104Z,53
2023-04-20T02:25:34.951Z,52
2023-04-20T02:26:41.920Z,51
2023-04-20T02:27:48.844Z,52
2023-04-20T02:28:55.779Z,49
2023-04-20T02:30:02.693Z,47
2023-04-20T02:31:09.933Z,52
2023-04-20T02:32:16.771Z,52
2023-04-20T02:33:23.663Z,48
2023-04-20T02:34:30.557Z,51
2023-04-20T02:35:37.340Z,50
2023-04-20T02:36:44.166Z,53
2023-04-20T02:37:51.002Z,51
2023-04-20T02:38:57.851Z,51
2023-04-20T02:40:04.695Z,51
2023-04-20T02:41:11.661Z,50
2023-04-20T02:42:18.471Z,52
2023-04-20T02:43:25.282Z,45
2023-04-20T02:44:32.191Z,50
2023-04-20T02:45:39.074Z,46
2023-04-20T02:46:45.991Z,45
2023-04-20T02:47:52.843Z,47
2023-04-20T02:49:00.541Z,51
2023-04-20T02:50:07.385Z,50
2023-04-20T02:51:14.240Z,48
2023-04-20T02:52:21.068Z,49
2023-04-20T02:53:27.951Z,47
2023-04-20T02:54:34.790Z,49
2023-04-20T02:55:41.687Z,49
2023-04-20T02:56:48.492Z,44
2023-04-20T02:57:55.331Z,44
2023-04-20T02:59:02.224Z,47
2023-04-20T03:00:09.101Z,49
2023-04-20T03:01:16.101Z,46
2023-04-20T03:02:23.994Z,44
2023-04-20T03:03:30.845Z,47
2023-04-20T03:04:37.782Z,50
2023-04-20T03:05:44.598Z,48
2023-04-20T03:06:51.450Z,47
2023-04-20T03:07:58.402Z,47
2023-04-20T03:09:05.270Z,44
2023-04-20T03:10:12.115Z,47
2023-04-20T03:11:18.955Z,50
2023-04-20T03:12:25.886Z,49
2023-04-20T03:13:32.731Z,49
2023-04-20T03:14:39.563Z,51
2023-04-20T03:15:47.584Z,51
2023-04-20T03:16:54.398Z,48
2023-04-20T03:18:01.543Z,50
2023-04-20T03:19:08.337Z,51
2023-04-20T03:20:15.176Z,51
2023-04-20T03:21:23.628Z,50
2023-04-20T03:22:30.485Z,54
2023-04-20T03:23:37.355Z,53
2023-04-20T03:24:44.209Z,53
2023-04-20T03:25:51.950Z,50
2023-04-20T03:26:58.850Z,50
2023-04-20T03:28:05.783Z,52
2023-04-20T03:29:12.629Z,57
2023-04-20T03:30:21.600Z,54
2023-04-20T03:31:28.725Z,54
2023-04-20T03:32:35.667Z,49
2023-04-20T03:33:42.458Z,52
2023-04-20T03:34:49.263Z,56
2023-04-20T03:35:56.075Z,58
2023-04-20T03:37:02.986Z,55
2023-04-20T03:38:09.901Z,56
2023-04-20T03:39:16.976Z,61
2023-04-20T03:40:24.522Z,58
2023-04-20T03:41:31.440Z,60
2023-04-20T03:42:38.279Z,62
2023-04-20T03:43:45.125Z,61
2023-04-20T03:44:52.058Z,61
2023-04-20T03:45:58.902Z,62
2023-04-20T03:47:05.792Z,62
2023-04-20T03:48:12.600Z,61
2023-04-20T03:49:21.085Z,65
2023-04-20T03:50:30.716Z,63
2023-04-20T03:51:38.647Z,65
2023-04-20T03:52:45.561Z,64
2023-04-20T03:53:52.417Z,63
2023-04-20T03:54:59.213Z,63
2023-04-20T03:56:06.165Z,64
2023-04-20T03:57:12.991Z,64
2023-04-20T03:58:19.798Z,65
2023-04-20T03:59:26.606Z,70
2023-04-20T04:00:33.422Z,64
2023-04-20T04:01:40.254Z,64
2023-04-20T04:02:47.239Z,65
2023-04-20T04:03:54.054Z,68
2023-04-20T04:05:00.802Z,62
2023-04-20T04:06:07.726Z,66
2023-04-20T04:07:14.577Z,62
2023-04-20T04:08:21.349Z,63
2023-04-20T04:09:28.247Z,60
2023-04-20T04:10:35.117Z,59
2023-04-20T04:11:41.990Z,59
2023-04-20T04:12:48.882Z,61
2023-04-20T04:13:55.795Z,62
2023-04-20T04:15:02.714Z,66
2023-04-20T04:16:10.923Z,61
2023-04-20T04:17:17.853Z,62
2023-04-20T04:18:24.778Z,60
2023-04-20T04:19:31.607Z,61
2023-04-20T04:20:38.478Z,59
2023-04-20T04:21:45.225Z,65
2023-04-20T04:22:52.074Z,66
2023-04-20T04:23:58.883Z,64
2023-04-20T04:25:05.802Z,63
2023-04-20T04:26:12.810Z,67
2023-04-20T04:27:19.674Z,67
2023-04-20T04:28:26.529Z,66
2023-04-20T04:29:33.360Z,68
2023-04-20T04:30:40.271Z,71
2023-04-20T04:31:47.215Z,70
2023-04-20T04:32:54.149Z,73
2023-04-20T04:34:00.991Z,71
2023-04-20T04:35:07.764Z,70
2023-04-20T04:36:14.605Z,70
2023-04-20T04:37:21.418Z,68
2023-04-20T04:38:28.315Z,69
2023-04-20T04:39:35.184Z,67
2023-04-20T04:40:42.074Z,68
2023-04-20T04:41:48.861Z,66
2023-04-20T04:42:55.764Z,64
2023-04-20T04:44:02.530Z,70
2023-04-20T04:45:09.363Z,61
2023-04-20T04:46:16.314Z,68
2023-04-20T04:47:23.134Z,69
2023-04-20T04:48:29.942Z,66
2023-04-20T04:49:36.788Z,69
2023-04-20T04:50:46.361Z,69
2023-04-20T04:51:53.194Z,67
2023-04-20T04:53:00.072Z,67
2023-04-20T04:54:06.872Z,68
2023-04-20T04:55:15.694Z,66
2023-04-20T04:56:20.632Z,64
2023-04-20T04:57:28.380Z,63
2023-04-20T04:58:35.255Z,69
2023-04-20T04:59:42.104Z,67
2023-04-20T05:00:50.002Z,67
2023-04-20T05:01:56.861Z,69
2023-04-20T05:03:03.793Z,66
2023-04-20T05:04:10.790Z,69
2023-04-20T05:05:17.452Z,67
2023-04-20T05:06:24.375Z,67
2023-04-20T05:07:31.607Z,68
2023-04-20T05:08:39.390Z,66
2023-04-20T05:09:46.457Z,68
2023-04-20T05:10:54.302Z,65
2023-04-20T05:12:01.273Z,63
2023-04-20T05:13:08.337Z,62
2023-04-20T05:14:18.222Z,67
2023-04-20T05:15:25.572Z,63
2023-04-20T05:16:35.264Z,63
2023-04-20T05:17:46.008Z,64
2023-04-20T05:18:54.289Z,65
2023-04-20T05:20:01.729Z,63
2023-04-20T05:21:09.013Z,63
2023-04-20T05:22:15.968Z,62
2023-04-20T05:23:23.783Z,57
2023-04-20T05:24:30.742Z,58
2023-04-20T05:25:37.684Z,65
2023-04-20T05:26:44.753Z,58
2023-04-20T05:27:54.098Z,60
2023-04-20T05:29:04.152Z,56
2023-04-20T05:30:20.151Z,54
2023-04-20T05:31:18.051Z,62
2023-04-20T05:32:24.958Z,54
2023-04-20T05:33:34.802Z,52
2023-04-20T05:34:43.838Z,55
2023-04-20T05:35:54.998Z,55
2023-04-20T05:37:02.008Z,55
2023-04-20T05:38:11.746Z,50
2023-04-20T05:39:19.982Z,55
2023-04-20T05:40:26.611Z,52
2023-04-20T05:41:34.287Z,53
2023-04-20T05:42:41.242Z,51
2023-04-20T05:43:48.242Z,50
2023-04-20T05:44:55.162Z,51
2023-04-20T05:46:02.603Z,51
2023-04-20T05:47:10.519Z,53
2023-04-20T05:48:21.168Z,50
2023-04-20T05:49:29.451Z,49
2023-04-20T05:50:36.404Z,55
2023-04-20T05:51:44.563Z,49
2023-04-20T05:52:52.552Z,50
2023-04-20T05:54:02.533Z,54
2023-04-20T05:55:09.490Z,53
2023-04-20T05:56:16.449Z,54
2023-04-20T05:57:23.391Z,51
2023-04-20T05:58:32.235Z,55
2023-04-20T05:59:39.176Z,51
2023-04-20T06:00:46.107Z,52
2023-04-20T06:01:52.947Z,49
2023-04-20T06:02:59.889Z,47
2023-04-20T06:04:07.106Z,50
2023-04-20T06:05:13.857Z,50
2023-04-20T06:06:21.413Z,50
2023-04-20T06:07:28.354Z,50
2023-04-20T06:08:36.506Z,49
2023-04-20T06:09:43.384Z,51
2023-04-20T06:10:50.197Z,52
2023-04-20T06:12:04.099Z,51
2023-04-20T06:13:11.087Z,48
2023-04-20T06:14:18.018Z,46
2023-04-20T06:15:26.343Z,49
2023-04-20T06:16:33.496Z,48
2023-04-20T06:17:40.213Z,47
2023-04-20T06:18:47.152Z,44
2023-04-20T06:19:54.287Z,45
2023-04-20T06:21:02.029Z,51
2023-04-20T06:22:09.272Z,47
2023-04-20T06:23:16.179Z,47
2023-04-20T06:24:23.119Z,50
2023-04-20T06:25:29.956Z,50
2023-04-20T06:26:37.352Z,46
2023-04-20T06:27:46.042Z,47
2023-04-20T06:28:52.926Z,46
2023-04-20T06:30:00.968Z,44
2023-04-20T06:31:10.854Z,44
2023-04-20T06:32:17.647Z,44
2023-04-20T06:33:25.619Z,48
2023-04-20T06:34:34.717Z,41
2023-04-20T06:35:41.554Z,43
2023-04-20T06:36:48.384Z,46
2023-04-20T06:37:55.203Z,45
2023-04-20T06:39:03.393Z,45
2023-04-20T06:40:13.697Z,46
2023-04-20T06:41:19.428Z,46
2023-04-20T06:42:26.373Z,43
2023-04-20T06:43:33.249Z,45
2023-04-20T06:44:40.120Z,47
2023-04-20T06:45:48.115Z,47
2023-04-20T06:46:55.771Z,40
2023-04-20T06:48:03.652Z,39
2023-04-20T06:49:11.978Z,39
2023-04-20T06:50:19.921Z,36
2023-04-20T06:51:27.872Z,34
2023-04-20T06:52:34.844Z,36
2023-04-20T06:53:43.492Z,36
2023-04-20T06:54:50.347Z,33
2023-04-20T06:55:57.280Z,37
2023-04-20T06:57:04.681Z,37
2023-04-20T06:58:11.728Z,33
2023-04-20T06:59:19.071Z,34
2023-04-20T07:00:29.840Z,35
2023-04-20T07:01:37.685Z,38
2023-04-20T07:02:46.133Z,35
2023-04-20T07:03:54.535Z,35
2023-04-20T07:05:01.362Z,37
2023-04-20T07:06:08.580Z,39
2023-04-20T07:07:19.121Z,35
2023-04-20T07:08:28.130Z,36
2023-04-20T07:09:36.498Z,38
2023-04-20T07:10:43.515Z,36
2023-04-20T07:11:51.193Z,33
2023-04-20T07:12:58.086Z,35
2023-04-20T07:14:05.651Z,39
2023-04-20T07:15:14.403Z,36
2023-04-20T07:16:21.304Z,38
2023-04-20T07:17:28.138Z,39
2023-04-20T07:18:35.522Z,36
2023-04-20T07:19:41.910Z,35
2023-04-20T07:20:48.748Z,36
2023-04-20T07:21:55.619Z,39
2023-04-20T07:23:02.546Z,36
2023-04-20T07:24:12.526Z,36
2023-04-20T07:25:20.887Z,33
2023-04-20T07:26:27.770Z,34
2023-04-20T07:27:36.978Z,33
2023-04-20T07:28:43.809Z,32
2023-04-20T07:29:53.821Z,33
2023-04-20T07:31:00.936Z,35
2023-04-20T07:32:08.881Z,36
2023-04-20T07:33:17.954Z,33
2023-04-20T07:34:24.906Z,37
2023-04-20T07:35:36.200Z,32
2023-04-20T07:36:43.179Z,34
2023-04-20T07:37:50.103Z,32
2023-04-20T07:38:56.987Z,31
2023-04-20T07:40:04.432Z,32
2023-04-20T07:41:13.229Z,31
2023-04-20T07:42:22.898Z,31
2023-04-20T07:43:30.080Z,35
2023-04-20T07:44:36.794Z,34
2023-04-20T07:45:44.640Z,35
2023-04-20T07:46:55.964Z,33
2023-04-20T07:48:03.887Z,34
2023-04-20T07:49:10.838Z,30
2023-04-20T07:50:18.420Z,31
2023-04-20T07:51:27.192Z,28
2023-04-20T07:52:34.186Z,30
2023-04-20T07:53:41.119Z,28
2023-04-20T07:54:48.917Z,27
2023-04-20T07:56:01.942Z,28
2023-04-20T07:57:10.599Z,28
2023-04-20T07:58:17.560Z,30
2023-04-20T07:59:24.437Z,29
2023-04-20T08:00:34.637Z,31
2023-04-20T08:01:41.643Z,26
2023-04-20T08:02:49.491Z,27
2023-04-20T08:03:57.187Z,30
2023-04-20T08:05:04.151Z,25
2023-04-20T08:06:10.919Z,24
2023-04-20T08:07:17.822Z,25
2023-04-20T08:08:24.631Z,22
2023-04-20T08:09:31.507Z,23
2023-04-20T08:10:38.366Z,24
2023-04-20T08:11:46.150Z,23
2023-04-20T08:12:53.982Z,21
2023-04-20T08:14:00.946Z,22
2023-04-20T08:15:07.950Z,24
2023-04-20T08:16:14.729Z,22
2023-04-20T08:17:24.700Z,22
2023-04-20T08:18:31.537Z,21
2023-04-20T08:19:38.519Z,20
2023-04-20T08:20:47.902Z,22
2023-04-20T08:21:54.691Z,21
2023-04-20T08:23:01.531Z,22
2023-04-20T08:24:08.383Z,21
2023-04-20T08:25:15.181Z,23
2023-04-20T08:26:22.170Z,20
2023-04-20T08:27:30.431Z,21
2023-04-20T08:28:38.329Z,18
2023-04-20T08:29:45.168Z,21
2023-04-20T08:30:52.211Z,19
2023-04-20T08:31:58.996Z,19
2023-04-20T08:33:06.604Z,19
2023-04-20T08:34:14.709Z,18
2023-04-20T08:35:21.543Z,19
2023-04-20T08:36:30.603Z,20
2023-04-20T08:37:37.393Z,24
2023-04-20T08:38:44.255Z,21
2023-04-20T08:39:51.348Z,22
2023-04-20T08:40:58.231Z,23
2023-04-20T08:42:06.001Z,23
2023-04-20T08:43:12.815Z,22
2023-04-20T08:44:19.678Z,22
2023-04-20T08:45:26.838Z,25
2023-04-20T08:46:33.879Z,23
2023-04-20T08:47:42.472Z,21
2023-04-20T08:48:49.486Z,21
2023-04-20T08:49:56.309Z,22
2023-04-20T08:51:03.195Z,23
2023-04-20T08:52:10.043Z,21
2023-04-20T08:53:20.111Z,22
2023-04-20T08:54:26.913Z,22
2023-04-20T08:55:33.828Z,21
2023-04-20T08:56:41.652Z,20
2023-04-20T08:57:48.648Z,23
2023-04-20T08:58:55.498Z,23
2023-04-20T09:00:02.400Z,20
2023-04-20T09:01:12.727Z,22
2023-04-20T09:02:18.667Z,22
2023-04-20T09:03:26.273Z,23
2023-04-20T09:04:38.393Z,21
2023-04-20T09:05:45.166Z,24
2023-04-20T09:06:52.008Z,22
2023-04-20T09:07:58.863Z,19
2023-04-20T09:09:06.628Z,19
2023-04-20T09:10:13.467Z,18
2023-04-20T09:11:20.404Z,19
2023-04-20T09:12:27.275Z,18
2023-04-20T09:13:34.110Z,22
2023-04-20T09:14:41.051Z,22
2023-04-20T09:15:47.896Z,20
2023-04-20T09:16:54.685Z,22
2023-04-20T09:18:01.659Z,18
2023-04-20T09:19:17.264Z,19
2023-04-20T09:20:24.148Z,21
2023-04-20T09:21:37.477Z,18
2023-04-20T09:22:52.235Z,19
2023-04-20T09:23:59.054Z,20
2023-04-20T09:25:05.899Z,20
2023-04-20T09:26:18.785Z,21
2023-04-20T09:27:25.587Z,23
2023-04-20T09:28:32.475Z,20
2023-04-20T09:29:39.362Z,21
2023-04-20T09:30:47.257Z,20
2023-04-20T09:31:54.212Z,20
2023-04-20T09:33:01.030Z,18
2023-04-20T09:34:08.919Z,20
2023-04-20T09:35:15.606Z,20
2023-04-20T09:36:26.379Z,21
2023-04-20T09:37:40.884Z,19
2023-04-20T09:38:50.651Z,21
2023-04-20T09:40:07.912Z,21
2023-04-20T09:41:14.814Z,22
2023-04-20T09:42:21.701Z,20
2023-04-20T09:43:28.573Z,21
2023-04-20T09:44:35.423Z,21
2023-04-20T09:45:42.237Z,20
2023-04-20T09:46:48.949Z,21
2023-04-20T09:47:55.720Z,21
2023-04-20T09:49:02.522Z,21
2023-04-20T09:50:19.919Z,23
2023-04-20T09:51:16.259Z,22
2023-04-20T09:52:23.115Z,23
2023-04-20T09:53:29.995Z,25
2023-04-20T09:54:36.836Z,20
2023-04-20T09:55:43.649Z,20
2023-04-20T09:56:53.491Z,24
2023-04-20T09:58:00.474Z,21
2023-04-20T09:59:07.320Z,19
2023-04-20T10:00:14.155Z,20
2023-04-20T10:01:21.228Z,20
2023-04-20T10:02:28.241Z,20
2023-04-20T10:03:35.106Z,20
2023-04-20T10:04:42.084Z,22
2023-04-20T10:05:56.686Z,23
2023-04-20T10:07:03.588Z,21
2023-04-20T10:08:10.491Z,22
2023-04-20T10:09:17.448Z,20
2023-04-20T10:10:24.235Z,22
2023-04-20T10:11:37.369Z,20
2023-04-20T10:12:37.901Z,20
2023-04-20T10:13:49.871Z,19
2023-04-20T10:14:56.705Z,20
2023-04-20T10:16:03.596Z,24
2023-04-20T10:17:10.452Z,21
2023-04-20T10:18:17.245Z,23
2023-04-20T10:19:24.104Z,21
2023-04-20T10:20:38.960Z,21
2023-04-20T10:21:45.745Z,20
2023-04-20T10:22:52.619Z,21
2023-04-20T10:23:59.836Z,21
2023-04-20T10:25:06.884Z,24
2023-04-20T10:26:16.564Z,21
2023-04-20T10:27:23.417Z,19
2023-04-20T10:28:30.211Z,20
2023-04-20T10:29:40.306Z,19
2023-04-20T10:30:47.170Z,23
2023-04-20T10:31:54.041Z,20
2023-04-20T10:33:00.924Z,21
2023-04-20T10:34:13.566Z,19
2023-04-20T10:35:20.437Z,21
2023-04-20T10:36:27.319Z,19
2023-04-20T10:37:36.800Z,22
2023-04-20T10:38:51.743Z,21
2023-04-20T10:39:58.731Z,19
2023-04-20T10:41:05.599Z,23
2023-04-20T10:42:12.421Z,22
2023-04-20T10:43:19.199Z,23
2023-04-20T10:44:26.026Z,21
2023-04-20T10:45:32.813Z,20
2023-04-20T10:46:40.539Z,22
2023-04-20T10:47:47.443Z,21
2023-04-20T10:48:54.314Z,20
2023-04-20T10:50:01.268Z,19
2023-04-20T10:51:14.035Z,20
2023-04-20T10:52:21.005Z,19
2023-04-20T10:53:36.063Z,18
2023-04-20T10:54:42.787Z,18
2023-04-20T10:55:50.711Z,17
2023-04-20T10:57:00.799Z,18
2023-04-20T10:58:07.696Z,21
2023-04-20T10:59:24.846Z,19
2023-04-20T11:00:31.650Z,18
2023-04-20T11:01:38.479Z,21
2023-04-20T11:02:45.271Z,20
2023-04-20T11:03:52.214Z,20
2023-04-20T11:04:59.112Z,20
2023-04-20T11:06:11.788Z,21
2023-04-20T11:07:18.780Z,21
2023-04-20T11:08:25.772Z,21
2023-04-20T11:09:40.560Z,20
2023-04-20T11:10:50.552Z,21
2023-04-20T11:11:57.400Z,19
2023-04-20T11:13:07.003Z,18
2023-04-20T11:14:24.299Z,23
2023-04-20T11:15:31.166Z,19
2023-04-20T11:16:49.480Z,19
2023-04-20T11:17:44.892Z,18
2023-04-20T11:18:51.764Z,20
2023-04-20T11:19:58.658Z,20
2023-04-20T11:21:15.779Z,19
2023-04-20T11:22:22.689Z,21
2023-04-20T11:23:29.689Z,18
2023-04-20T11:24:37.009Z,18
2023-04-20T11:25:44.225Z,22
2023-04-20T11:26:54.105Z,22
2023-04-20T11:28:01.080Z,20
2023-04-20T11:29:10.733Z,19
2023-04-20T11:30:19.503Z,21
2023-04-20T11:31:26.557Z,21
2023-04-20T11:32:33.546Z,19
2023-04-20T11:33:40.311Z,19
2023-04-20T11:34:50.195Z,19
2023-04-20T11:36:02.026Z,20
2023-04-20T11:37:08.970Z,19
2023-04-20T11:38:18.832Z,20
2023-04-20T11:39:30.838Z,21
2023-04-20T11:40:37.684Z,19
2023-04-20T11:41:44.645Z,19
2023-04-20T11:42:51.512Z,21
2023-04-20T11:43:58.404Z,23
2023-04-20T11:45:05.225Z,18
2023-04-20T11:46:13.657Z,23
2023-04-20T11:47:23.639Z,23
2023-04-20T11:48:30.490Z,25
2023-04-20T11:49:37.311Z,19
2023-04-20T11:50:44.236Z,24
2023-04-20T11:51:51.129Z,22
2023-04-20T11:52:57.910Z,20
2023-04-20T11:54:04.740Z,19
2023-04-20T11:55:11.524Z,18
2023-04-20T11:56:18.398Z,18
2023-04-20T11:57:25.255Z,21
2023-04-20T11:58:32.085Z,20
2023-04-20T11:59:39.118Z,17
2023-04-20T12:00:46.033Z,21
2023-04-20T12:01:52.824Z,22
2023-04-20T12:02:59.670Z,19
2023-04-20T12:04:06.819Z,19
2023-04-20T12:05:13.356Z,18
2023-04-20T12:06:20.274Z,18
2023-04-20T12:07:27.154Z,17
2023-04-20T12:08:33.956Z,20
2023-04-20T12:09:40.700Z,19
2023-04-20T12:10:47.538Z,18
2023-04-20T12:11:54.422Z,17
2023-04-20T12:13:01.277Z,19
2023-04-20T12:14:08.150Z,20
2023-04-20T12:15:14.915Z,17
2023-04-20T12:16:21.777Z,19
2023-04-20T12:17:28.566Z,18
2023-04-20T12:18:35.324Z,18
2023-04-20T12:19:42.726Z,17
2023-04-20T12:20:49.628Z,17
2023-04-20T12:21:56.394Z,17
2023-04-20T12:23:03.239Z,17
2023-04-20T12:24:10.088Z,18
2023-04-20T12:25:16.899Z,16
2023-04-20T12:26:31.913Z,20
2023-04-20T12:27:30.856Z,16
2023-04-20T12:28:37.689Z,15
2023-04-20T12:29:44.652Z,15
2023-04-20T12:30:51.433Z,15
2023-04-20T12:31:58.353Z,15
2023-04-20T12:33:05.092Z,16
2023-04-20T12:34:11.918Z,14
2023-04-20T12:35:18.942Z,16
2023-04-20T12:36:25.880Z,14
2023-04-20T12:37:34.246Z,16
2023-04-20T12:38:41.326Z,13
2023-04-20T12:39:48.302Z,13
2023-04-20T12:40:55.269Z,13
2023-04-20T12:42:03.343Z,12
2023-04-20T12:43:10.204Z,10
2023-04-20T12:44:17.274Z,12
2023-04-20T12:45:23.933Z,12
2023-04-20T12:46:30.878Z,14
2023-04-20T12:47:37.674Z,13
2023-04-20T12:48:44.472Z,13
2023-04-20T12:49:51.288Z,14
2023-04-20T12:50:58.066Z,13
2023-04-20T12:52:06.884Z,11
2023-04-20T12:53:12.075Z,17
2023-04-20T12:54:19.154Z,15
2023-04-20T12:55:25.946Z,17
2023-04-20T12:56:33.689Z,19
2023-04-20T12:57:40.814Z,18
2023-04-20T12:58:47.709Z,17
2023-04-20T12:59:54.670Z,16
2023-04-20T13:01:01.422Z,15
2023-04-20T13:02:08.617Z,15
2023-04-20T13:03:15.557Z,16
2023-04-20T13:04:22.843Z,14
2023-04-20T13:05:29.314Z,13
2023-04-20T13:06:39.442Z,13
2023-04-20T13:07:46.308Z,15
2023-04-20T13:08:53.279Z,17
2023-04-20T13:10:00.255Z,17
2023-04-20T13:11:11.645Z,13
2023-04-20T13:12:18.658Z,19
2023-04-20T13:13:26.463Z,16
2023-04-20T13:14:33.429Z,17
2023-04-20T13:15:40.397Z,16
2023-04-20T13:16:47.444Z,13
2023-04-20T13:17:54.363Z,12
2023-04-20T13:19:01.506Z,11
2023-04-20T13:20:08.515Z,12
2023-04-20T13:21:15.495Z,15
2023-04-20T13:22:22.909Z,11
2023-04-20T13:23:29.941Z,12
2023-04-20T13:24:36.903Z,12
2023-04-20T13:25:43.881Z,11
2023-04-20T13:26:50.849Z,16
2023-04-20T13:28:00.855Z,13
2023-04-20T13:29:07.885Z,14
2023-04-20T13:30:14.937Z,11
2023-04-20T13:31:21.940Z,11
2023-04-20T13:32:28.780Z,10
2023-04-20T13:33:35.928Z,12
2023-04-20T13:34:42.880Z,10
2023-04-20T13:35:52.898Z,10
2023-04-20T13:37:00.027Z,11
2023-04-20T13:38:06.912Z,11
2023-04-20T13:39:13.921Z,9
2023-04-20T13:40:20.874Z,9
2023-04-20T13:41:28.407Z,9
2023-04-20T13:42:35.442Z,11
2023-04-20T13:43:42.346Z,11
2023-04-20T13:44:49.275Z,10
2023-04-20T13:45:56.292Z,11
2023-04-20T13:47:03.333Z,12
2023-04-20T13:48:10.412Z,11
2023-04-20T13:49:17.451Z,13
2023-04-20T13:50:25.749Z,9
2023-04-20T13:51:32.691Z,12
2023-04-20T13:52:39.692Z,12
2023-04-20T13:53:46.778Z,12
2023-04-20T13:54:53.709Z,11
2023-04-20T13:56:00.621Z,14
2023-04-20T13:57:22.989Z,12
2023-04-20T13:58:30.038Z,11
2023-04-20T13:59:36.858Z,9
2023-04-20T14:00:43.743Z,11
2023-04-20T14:01:50.703Z,14
2023-04-20T14:02:57.521Z,11
2023-04-20T14:04:04.368Z,12
2023-04-20T14:05:11.142Z,9
2023-04-20T14:06:17.975Z,12
2023-04-20T14:07:24.881Z,12
2023-04-20T14:08:31.638Z,12
2023-04-20T14:09:38.481Z,11
2023-04-20T14:10:45.297Z,10
2023-04-20T14:11:54.939Z,10
2023-04-20T14:12:58.913Z,10
2023-04-20T14:14:05.667Z,11
2023-04-20T14:15:12.477Z,11
2023-04-20T14:16:19.330Z,12
2023-04-20T14:17:26.148Z,10
2023-04-20T14:18:32.955Z,11
2023-04-20T14:19:39.749Z,11
2023-04-20T14:20:46.569Z,11
2023-04-20T14:21:53.463Z,12
2023-04-20T14:23:00.262Z,10
2023-04-20T14:24:07.008Z,12
2023-04-20T14:25:13.794Z,10
2023-04-20T14:26:20.695Z,13
2023-04-20T14:27:27.541Z,11
2023-04-20T14:28:34.417Z,15
2023-04-20T14:29:41.191Z,12
2023-04-20T14:30:47.994Z,13
2023-04-20T14:31:55.818Z,13
2023-04-20T14:33:02.705Z,13
2023-04-20T14:34:09.511Z,13
2023-04-20T14:35:16.307Z,12
2023-04-20T14:36:23.162Z,12
2023-04-20T14:37:29.898Z,12
2023-04-20T14:38:36.724Z,14
2023-04-20T14:39:43.566Z,11
2023-04-20T14:40:50.586Z,13
2023-04-20T14:41:57.376Z,13
2023-04-20T14:43:04.238Z,12
2023-04-20T14:44:11.059Z,13
2023-04-20T14:45:17.831Z,11
2023-04-20T14:46:24.711Z,11
2023-04-20T14:47:31.610Z,12
2023-04-20T14:48:38.335Z,13
2023-04-20T14:49:45.204Z,10
2023-04-20T14:50:52.041Z,10
2023-04-20T14:51:58.906Z,10
2023-04-20T14:53:05.774Z,11
2023-04-20T14:54:12.547Z,12
2023-04-20T14:55:19.521Z,12
2023-04-20T14:56:26.400Z,11
2023-04-20T14:57:33.172Z,11
2023-04-20T14:58:40.033Z,10
2023-04-20T14:59:46.868Z,10
2023-04-20T15:00:53.665Z,12
2023-04-20T15:02:02.647Z,8
2023-04-20T15:03:07.462Z,11
2023-04-20T15:04:14.228Z,11
2023-04-20T15:05:21.012Z,10
2023-04-20T15:06:27.636Z,12
2023-04-20T15:07:34.446Z,10
2023-04-20T15:08:41.222Z,11
2023-04-20T15:09:48.032Z,10
2023-04-20T15:10:56.974Z,11
2023-04-20T15:12:04.001Z,8
2023-04-20T15:13:10.935Z,10
2023-04-20T15:14:18.998Z,10
2023-04-20T15:15:31.937Z,9
2023-04-20T15:16:33.738Z,11
2023-04-20T15:17:43.979Z,9
2023-04-20T15:18:50.836Z,12
2023-04-20T15:19:57.669Z,11
2023-04-20T15:21:07.824Z,11
2023-04-20T15:22:14.628Z,9
2023-04-20T15:23:22.234Z,9
2023-04-20T15:24:31.369Z,9
2023-04-20T15:25:38.199Z,10
2023-04-20T15:26:45.066Z,14
2023-04-20T15:27:53.056Z,10
2023-04-20T15:28:59.973Z,9
2023-04-20T15:30:06.976Z,11
2023-04-20T15:31:13.933Z,12
2023-04-20T15:32:20.865Z,14
2023-04-20T15:33:27.724Z,11
2023-04-20T15:34:35.688Z,12
2023-04-20T15:35:42.503Z,13
2023-04-20T15:36:49.366Z,8
2023-04-20T15:37:56.208Z,12
2023-04-20T15:39:03.009Z,9
2023-04-20T15:40:09.828Z,11
2023-04-20T15:41:16.660Z,14
2023-04-20T15:42:23.683Z,9
2023-04-20T15:43:32.612Z,12
2023-04-20T15:44:39.453Z,9
2023-04-20T15:45:46.337Z,10
2023-04-20T15:46:53.157Z,16
2023-04-20T15:48:00.045Z,11
2023-04-20T15:49:06.873Z,12
2023-04-20T15:50:13.666Z,11
2023-04-20T15:51:20.852Z,11
2023-04-20T15:52:27.746Z,13
2023-04-20T15:53:34.525Z,12
2023-04-20T15:54:41.342Z,11
2023-04-20T15:55:48.152Z,12
2023-04-20T15:56:55.152Z,11
2023-04-20T15:58:01.997Z,10
2023-04-20T15:59:08.825Z,11
2023-04-20T16:00:15.642Z,12
2023-04-20T16:01:22.590Z,13
2023-04-20T16:02:29.546Z,13